sensor_id;sensor_type;location;lat;lon;timestamp;P1;durP1;ratioP1;P2;durP2;ratioP2
41661;SDS011;27351;45.992;12.666;2023-04-28T00:00:43;7.67;;;4.17;;
41661;SDS011;27351;45.992;12.666;2023-04-28T00:03:09;6.93;;;4.43;;
41661;SDS011;27351;45.992;12.666;2023-04-28T00:05:35;6.67;;;3.73;;
41661;SDS011;27351;45.992;12.666;2023-04-28T00:08:00;6.77;;;3.77;;
41661;SDS011;27351;45.992;12.666;2023-04-28T00:10:27;6.60;;;3.92;;
41661;SDS011;27351;45.992;12.666;2023-04-28T00:12:53;7.65;;;4.05;;
41661;SDS011;27351;45.992;12.666;2023-04-28T00:15:19;7.33;;;3.70;;
41661;SDS011;27351;45.992;12.666;2023-04-28T00:17:45;6.07;;;3.85;;
41661;SDS011;27351;45.992;12.666;2023-04-28T00:20:10;6.57;;;3.90;;
41661;SDS011;27351;45.992;12.666;2023-04-28T00:22:36;7.78;;;3.72;;
41661;SDS011;27351;45.992;12.666;2023-04-28T00:25:02;5.13;;;3.70;;
41661;SDS011;27351;45.992;12.666;2023-04-28T00:27:27;5.53;;;3.23;;
41661;SDS011;27351;45.992;12.666;2023-04-28T00:29:53;6.17;;;3.50;;
41661;SDS011;27351;45.992;12.666;2023-04-28T00:32:18;7.25;;;3.78;;
41661;SDS011;27351;45.992;12.666;2023-04-28T00:34:45;6.80;;;3.80;;
41661;SDS011;27351;45.992;12.666;2023-04-28T00:37:10;6.88;;;4.10;;
41661;SDS011;27351;45.992;12.666;2023-04-28T00:39:36;6.35;;;3.63;;
41661;SDS011;27351;45.992;12.666;2023-04-28T00:42:02;6.18;;;3.58;;
41661;SDS011;27351;45.992;12.666;2023-04-28T00:44:29;5.57;;;3.42;;
41661;SDS011;27351;45.992;12.666;2023-04-28T00:46:55;5.35;;;3.55;;
41661;SDS011;27351;45.992;12.666;2023-04-28T00:49:20;5.77;;;3.10;;
41661;SDS011;27351;45.992;12.666;2023-04-28T00:51:46;5.17;;;3.40;;
41661;SDS011;27351;45.992;12.666;2023-04-28T00:54:12;6.87;;;3.57;;
41661;SDS011;27351;45.992;12.666;2023-04-28T00:56:38;5.72;;;3.20;;
41661;SDS011;27351;45.992;12.666;2023-04-28T00:59:04;5.87;;;3.20;;
41661;SDS011;27351;45.992;12.666;2023-04-28T01:01:29;5.60;;;3.03;;
41661;SDS011;27351;45.992;12.666;2023-04-28T01:03:56;6.43;;;3.27;;
41661;SDS011;27351;45.992;12.666;2023-04-28T01:06:22;7.93;;;4.07;;
41661;SDS011;27351;45.992;12.666;2023-04-28T01:08:50;6.35;;;3.33;;
41661;SDS011;27351;45.992;12.666;2023-04-28T01:11:16;6.93;;;3.40;;
41661;SDS011;27351;45.992;12.666;2023-04-28T01:13:54;6.20;;;3.50;;
41661;SDS011;27351;45.992;12.666;2023-04-28T01:16:23;5.78;;;3.05;;
41661;SDS011;27351;45.992;12.666;2023-04-28T01:18:50;5.60;;;3.25;;
41661;SDS011;27351;45.992;12.666;2023-04-28T01:21:26;5.80;;;3.00;;
41661;SDS011;27351;45.992;12.666;2023-04-28T01:23:54;5.63;;;3.30;;
41661;SDS011;27351;45.992;12.666;2023-04-28T01:26:20;5.40;;;3.00;;
41661;SDS011;27351;45.992;12.666;2023-04-28T01:28:47;5.97;;;2.80;;
41661;SDS011;27351;45.992;12.666;2023-04-28T01:31:12;6.10;;;3.30;;
41661;SDS011;27351;45.992;12.666;2023-04-28T01:33:38;6.23;;;3.33;;
41661;SDS011;27351;45.992;12.666;2023-04-28T01:36:03;5.13;;;3.00;;
41661;SDS011;27351;45.992;12.666;2023-04-28T01:38:29;5.77;;;3.10;;
41661;SDS011;27351;45.992;12.666;2023-04-28T01:40:55;5.03;;;3.00;;
41661;SDS011;27351;45.992;12.666;2023-04-28T01:43:23;5.90;;;3.27;;
41661;SDS011;27351;45.992;12.666;2023-04-28T01:45:50;5.93;;;3.00;;
41661;SDS011;27351;45.992;12.666;2023-04-28T01:48:16;6.20;;;3.23;;
41661;SDS011;27351;45.992;12.666;2023-04-28T01:50:44;5.80;;;3.00;;
41661;SDS011;27351;45.992;12.666;2023-04-28T01:53:10;5.23;;;3.07;;
41661;SDS011;27351;45.992;12.666;2023-04-28T01:55:36;6.53;;;3.20;;
41661;SDS011;27351;45.992;12.666;2023-04-28T01:58:03;7.35;;;3.58;;
41661;SDS011;27351;45.992;12.666;2023-04-28T02:00:29;5.28;;;2.90;;
41661;SDS011;27351;45.992;12.666;2023-04-28T02:02:55;8.10;;;3.77;;
41661;SDS011;27351;45.992;12.666;2023-04-28T02:05:20;5.70;;;3.10;;
41661;SDS011;27351;45.992;12.666;2023-04-28T02:07:48;4.95;;;3.03;;
41661;SDS011;27351;45.992;12.666;2023-04-28T02:10:14;5.97;;;3.23;;
41661;SDS011;27351;45.992;12.666;2023-04-28T02:12:39;6.47;;;3.17;;
41661;SDS011;27351;45.992;12.666;2023-04-28T02:15:07;5.55;;;3.13;;
41661;SDS011;27351;45.992;12.666;2023-04-28T02:17:33;5.80;;;3.05;;
41661;SDS011;27351;45.992;12.666;2023-04-28T02:19:58;6.33;;;3.17;;
41661;SDS011;27351;45.992;12.666;2023-04-28T02:22:25;9.38;;;3.38;;
41661;SDS011;27351;45.992;12.666;2023-04-28T02:24:51;7.33;;;3.83;;
41661;SDS011;27351;45.992;12.666;2023-04-28T02:27:16;5.70;;;2.90;;
41661;SDS011;27351;45.992;12.666;2023-04-28T02:29:42;5.47;;;3.13;;
41661;SDS011;27351;45.992;12.666;2023-04-28T02:32:08;5.80;;;3.27;;
41661;SDS011;27351;45.992;12.666;2023-04-28T02:34:33;6.10;;;3.30;;
41661;SDS011;27351;45.992;12.666;2023-04-28T02:37:00;5.03;;;3.05;;
41661;SDS011;27351;45.992;12.666;2023-04-28T02:39:26;7.87;;;4.07;;
41661;SDS011;27351;45.992;12.666;2023-04-28T02:41:55;5.50;;;3.00;;
41661;SDS011;27351;45.992;12.666;2023-04-28T02:44:21;5.68;;;3.00;;
41661;SDS011;27351;45.992;12.666;2023-04-28T02:46:47;5.63;;;3.03;;
41661;SDS011;27351;45.992;12.666;2023-04-28T02:49:12;5.93;;;3.17;;
41661;SDS011;27351;45.992;12.666;2023-04-28T02:51:39;6.32;;;3.30;;
41661;SDS011;27351;45.992;12.666;2023-04-28T02:54:04;5.38;;;3.40;;
41661;SDS011;27351;45.992;12.666;2023-04-28T02:56:30;5.03;;;3.20;;
41661;SDS011;27351;45.992;12.666;2023-04-28T02:58:57;5.68;;;3.30;;
41661;SDS011;27351;45.992;12.666;2023-04-28T03:01:22;5.73;;;2.97;;
41661;SDS011;27351;45.992;12.666;2023-04-28T03:03:48;8.07;;;4.00;;
41661;SDS011;27351;45.992;12.666;2023-04-28T03:06:14;5.07;;;3.13;;
41661;SDS011;27351;45.992;12.666;2023-04-28T03:08:40;5.93;;;3.40;;
41661;SDS011;27351;45.992;12.666;2023-04-28T03:11:05;6.78;;;3.63;;
41661;SDS011;27351;45.992;12.666;2023-04-28T03:13:31;6.28;;;3.22;;
41661;SDS011;27351;45.992;12.666;2023-04-28T03:15:57;5.78;;;3.50;;
41661;SDS011;27351;45.992;12.666;2023-04-28T03:18:23;6.07;;;3.08;;
41661;SDS011;27351;45.992;12.666;2023-04-28T03:20:48;5.07;;;3.28;;
41661;SDS011;27351;45.992;12.666;2023-04-28T03:23:14;5.65;;;3.00;;
41661;SDS011;27351;45.992;12.666;2023-04-28T03:25:40;5.05;;;3.13;;
41661;SDS011;27351;45.992;12.666;2023-04-28T03:28:06;5.40;;;2.90;;
41661;SDS011;27351;45.992;12.666;2023-04-28T03:30:32;7.45;;;3.15;;
41661;SDS011;27351;45.992;12.666;2023-04-28T03:32:58;5.45;;;3.08;;
41661;SDS011;27351;45.992;12.666;2023-04-28T03:35:23;5.83;;;3.23;;
41661;SDS011;27351;45.992;12.666;2023-04-28T03:37:49;5.37;;;3.00;;
41661;SDS011;27351;45.992;12.666;2023-04-28T03:40:15;5.70;;;2.90;;
41661;SDS011;27351;45.992;12.666;2023-04-28T03:43:13;5.90;;;3.25;;
41661;SDS011;27351;45.992;12.666;2023-04-28T03:45:52;5.38;;;2.95;;
41661;SDS011;27351;45.992;12.666;2023-04-28T03:48:18;5.65;;;3.25;;
41661;SDS011;27351;45.992;12.666;2023-04-28T03:50:43;4.50;;;2.90;;
41661;SDS011;27351;45.992;12.666;2023-04-28T03:53:10;7.45;;;3.67;;
41661;SDS011;27351;45.992;12.666;2023-04-28T03:55:36;5.45;;;3.17;;
41661;SDS011;27351;45.992;12.666;2023-04-28T03:58:02;5.53;;;3.10;;
41661;SDS011;27351;45.992;12.666;2023-04-28T04:00:27;5.30;;;3.00;;
41661;SDS011;27351;45.992;12.666;2023-04-28T04:02:53;6.10;;;3.03;;
41661;SDS011;27351;45.992;12.666;2023-04-28T04:05:19;6.07;;;3.10;;
41661;SDS011;27351;45.992;12.666;2023-04-28T04:07:45;4.82;;;2.97;;
41661;SDS011;27351;45.992;12.666;2023-04-28T04:10:11;5.00;;;2.80;;
41661;SDS011;27351;45.992;12.666;2023-04-28T04:12:40;7.87;;;3.30;;
41661;SDS011;27351;45.992;12.666;2023-04-28T04:15:06;5.50;;;3.47;;
41661;SDS011;27351;45.992;12.666;2023-04-28T04:17:32;5.80;;;3.15;;
41661;SDS011;27351;45.992;12.666;2023-04-28T04:19:57;5.47;;;3.20;;
41661;SDS011;27351;45.992;12.666;2023-04-28T04:22:25;5.78;;;3.13;;
41661;SDS011;27351;45.992;12.666;2023-04-28T04:24:51;4.67;;;2.80;;
41661;SDS011;27351;45.992;12.666;2023-04-28T04:27:16;5.63;;;3.10;;
41661;SDS011;27351;45.992;12.666;2023-04-28T04:29:43;5.70;;;3.20;;
41661;SDS011;27351;45.992;12.666;2023-04-28T04:32:11;4.60;;;2.65;;
41661;SDS011;27351;45.992;12.666;2023-04-28T04:34:38;5.28;;;2.75;;
41661;SDS011;27351;45.992;12.666;2023-04-28T04:37:04;5.30;;;3.10;;
41661;SDS011;27351;45.992;12.666;2023-04-28T04:39:31;10.63;;;4.70;;
41661;SDS011;27351;45.992;12.666;2023-04-28T04:41:56;5.80;;;3.07;;
41661;SDS011;27351;45.992;12.666;2023-04-28T04:44:35;5.47;;;2.95;;
41661;SDS011;27351;45.992;12.666;2023-04-28T04:47:02;8.02;;;3.08;;
41661;SDS011;27351;45.992;12.666;2023-04-28T04:49:29;7.47;;;2.88;;
41661;SDS011;27351;45.992;12.666;2023-04-28T04:51:54;6.53;;;2.90;;
41661;SDS011;27351;45.992;12.666;2023-04-28T04:54:20;6.33;;;3.17;;
41661;SDS011;27351;45.992;12.666;2023-04-28T04:56:46;7.07;;;3.47;;
41661;SDS011;27351;45.992;12.666;2023-04-28T04:59:17;7.95;;;3.03;;
41661;SDS011;27351;45.992;12.666;2023-04-28T05:01:57;6.82;;;3.05;;
41661;SDS011;27351;45.992;12.666;2023-04-28T05:04:23;6.30;;;3.03;;
41661;SDS011;27351;45.992;12.666;2023-04-28T05:06:50;6.88;;;3.10;;
41661;SDS011;27351;45.992;12.666;2023-04-28T05:09:16;4.53;;;2.47;;
41661;SDS011;27351;45.992;12.666;2023-04-28T05:11:41;6.47;;;3.17;;
41661;SDS011;27351;45.992;12.666;2023-04-28T05:14:07;6.70;;;3.17;;
41661;SDS011;27351;45.992;12.666;2023-04-28T05:16:33;4.78;;;2.72;;
41661;SDS011;27351;45.992;12.666;2023-04-28T05:19:10;6.65;;;3.10;;
41661;SDS011;27351;45.992;12.666;2023-04-28T05:21:36;6.63;;;3.10;;
41661;SDS011;27351;45.992;12.666;2023-04-28T05:24:02;6.30;;;3.37;;
41661;SDS011;27351;45.992;12.666;2023-04-28T05:26:28;7.97;;;3.80;;
41661;SDS011;27351;45.992;12.666;2023-04-28T05:28:58;7.32;;;3.20;;
41661;SDS011;27351;45.992;12.666;2023-04-28T05:31:24;7.25;;;3.45;;
41661;SDS011;27351;45.992;12.666;2023-04-28T05:33:50;7.20;;;3.78;;
41661;SDS011;27351;45.992;12.666;2023-04-28T05:36:16;7.55;;;3.40;;
41661;SDS011;27351;45.992;12.666;2023-04-28T05:38:42;8.52;;;3.80;;
41661;SDS011;27351;45.992;12.666;2023-04-28T05:41:08;8.10;;;3.58;;
41661;SDS011;27351;45.992;12.666;2023-04-28T05:43:33;6.80;;;3.47;;
41661;SDS011;27351;45.992;12.666;2023-04-28T05:45:59;7.23;;;3.70;;
41661;SDS011;27351;45.992;12.666;2023-04-28T05:48:26;7.53;;;3.65;;
41661;SDS011;27351;45.992;12.666;2023-04-28T05:50:51;7.40;;;3.97;;
41661;SDS011;27351;45.992;12.666;2023-04-28T05:53:17;7.43;;;3.97;;
41661;SDS011;27351;45.992;12.666;2023-04-28T05:55:42;7.53;;;3.55;;
41661;SDS011;27351;45.992;12.666;2023-04-28T05:58:08;6.60;;;3.70;;
41661;SDS011;27351;45.992;12.666;2023-04-28T06:00:34;9.80;;;3.73;;
41661;SDS011;27351;45.992;12.666;2023-04-28T06:03:00;6.97;;;3.70;;
41661;SDS011;27351;45.992;12.666;2023-04-28T06:05:26;6.28;;;3.70;;
41661;SDS011;27351;45.992;12.666;2023-04-28T06:07:53;6.70;;;3.70;;
41661;SDS011;27351;45.992;12.666;2023-04-28T06:10:24;7.63;;;4.07;;
41661;SDS011;27351;45.992;12.666;2023-04-28T06:12:50;7.07;;;3.80;;
41661;SDS011;27351;45.992;12.666;2023-04-28T06:15:15;7.72;;;4.25;;
41661;SDS011;27351;45.992;12.666;2023-04-28T06:17:41;7.65;;;4.00;;
41661;SDS011;27351;45.992;12.666;2023-04-28T06:20:07;7.60;;;4.03;;
41661;SDS011;27351;45.992;12.666;2023-04-28T06:22:36;5.95;;;3.80;;
41661;SDS011;27351;45.992;12.666;2023-04-28T06:25:01;7.20;;;3.83;;
41661;SDS011;27351;45.992;12.666;2023-04-28T06:27:33;7.03;;;3.80;;
41661;SDS011;27351;45.992;12.666;2023-04-28T06:29:58;5.65;;;3.45;;
41661;SDS011;27351;45.992;12.666;2023-04-28T06:32:24;6.97;;;3.50;;
41661;SDS011;27351;45.992;12.666;2023-04-28T06:34:50;6.75;;;3.22;;
41661;SDS011;27351;45.992;12.666;2023-04-28T06:37:16;5.20;;;2.70;;
41661;SDS011;27351;45.992;12.666;2023-04-28T06:39:41;5.75;;;3.00;;
41661;SDS011;27351;45.992;12.666;2023-04-28T06:42:07;9.30;;;3.50;;
41661;SDS011;27351;45.992;12.666;2023-04-28T06:44:35;5.72;;;2.80;;
41661;SDS011;27351;45.992;12.666;2023-04-28T06:47:01;5.60;;;3.05;;
41661;SDS011;27351;45.992;12.666;2023-04-28T06:49:27;5.67;;;2.87;;
41661;SDS011;27351;45.992;12.666;2023-04-28T06:51:57;5.68;;;3.28;;
41661;SDS011;27351;45.992;12.666;2023-04-28T06:54:23;5.77;;;3.10;;
41661;SDS011;27351;45.992;12.666;2023-04-28T06:56:48;6.13;;;3.10;;
41661;SDS011;27351;45.992;12.666;2023-04-28T06:59:14;6.43;;;3.28;;
41661;SDS011;27351;45.992;12.666;2023-04-28T07:01:40;5.22;;;3.00;;
41661;SDS011;27351;45.992;12.666;2023-04-28T07:04:05;7.30;;;3.45;;
41661;SDS011;27351;45.992;12.666;2023-04-28T07:06:31;8.40;;;4.00;;
41661;SDS011;27351;45.992;12.666;2023-04-28T07:08:56;6.10;;;3.10;;
41661;SDS011;27351;45.992;12.666;2023-04-28T07:11:22;7.87;;;4.10;;
41661;SDS011;27351;45.992;12.666;2023-04-28T07:13:47;7.00;;;3.60;;
41661;SDS011;27351;45.992;12.666;2023-04-28T07:16:18;5.93;;;3.20;;
41661;SDS011;27351;45.992;12.666;2023-04-28T07:18:45;6.05;;;3.13;;
41661;SDS011;27351;45.992;12.666;2023-04-28T07:21:11;6.67;;;3.43;;
41661;SDS011;27351;45.992;12.666;2023-04-28T07:23:37;6.47;;;3.50;;
41661;SDS011;27351;45.992;12.666;2023-04-28T07:26:03;6.18;;;3.13;;
41661;SDS011;27351;45.992;12.666;2023-04-28T07:28:28;7.60;;;3.30;;
41661;SDS011;27351;45.992;12.666;2023-04-28T07:30:54;5.90;;;3.20;;
41661;SDS011;27351;45.992;12.666;2023-04-28T07:33:20;7.03;;;3.50;;
41661;SDS011;27351;45.992;12.666;2023-04-28T07:35:45;8.53;;;3.67;;
41661;SDS011;27351;45.992;12.666;2023-04-28T07:38:11;8.90;;;3.47;;
41661;SDS011;27351;45.992;12.666;2023-04-28T07:40:36;5.88;;;2.90;;
41661;SDS011;27351;45.992;12.666;2023-04-28T07:43:02;7.97;;;3.20;;
41661;SDS011;27351;45.992;12.666;2023-04-28T07:45:28;7.93;;;3.35;;
41661;SDS011;27351;45.992;12.666;2023-04-28T07:47:53;5.53;;;2.80;;
41661;SDS011;27351;45.992;12.666;2023-04-28T07:50:19;6.40;;;3.13;;
41661;SDS011;27351;45.992;12.666;2023-04-28T07:52:44;5.65;;;3.25;;
41661;SDS011;27351;45.992;12.666;2023-04-28T07:55:10;6.23;;;2.97;;
41661;SDS011;27351;45.992;12.666;2023-04-28T07:57:35;6.73;;;3.10;;
41661;SDS011;27351;45.992;12.666;2023-04-28T08:00:02;7.20;;;3.40;;
41661;SDS011;27351;45.992;12.666;2023-04-28T08:02:37;6.50;;;3.20;;
41661;SDS011;27351;45.992;12.666;2023-04-28T08:05:02;6.55;;;2.90;;
41661;SDS011;27351;45.992;12.666;2023-04-28T08:07:28;6.10;;;3.00;;
41661;SDS011;27351;45.992;12.666;2023-04-28T08:09:54;7.10;;;3.30;;
41661;SDS011;27351;45.992;12.666;2023-04-28T08:12:19;6.63;;;3.07;;
41661;SDS011;27351;45.992;12.666;2023-04-28T08:14:45;6.63;;;3.00;;
41661;SDS011;27351;45.992;12.666;2023-04-28T08:17:10;6.80;;;3.00;;
41661;SDS011;27351;45.992;12.666;2023-04-28T08:19:36;5.47;;;2.87;;
41661;SDS011;27351;45.992;12.666;2023-04-28T08:22:01;6.20;;;2.95;;
41661;SDS011;27351;45.992;12.666;2023-04-28T08:24:30;5.50;;;3.10;;
41661;SDS011;27351;45.992;12.666;2023-04-28T08:27:01;6.70;;;3.60;;
41661;SDS011;27351;45.992;12.666;2023-04-28T08:29:30;7.47;;;3.60;;
41661;SDS011;27351;45.992;12.666;2023-04-28T08:31:56;7.57;;;3.45;;
41661;SDS011;27351;45.992;12.666;2023-04-28T08:34:22;7.60;;;3.70;;
41661;SDS011;27351;45.992;12.666;2023-04-28T08:36:47;7.10;;;3.22;;
41661;SDS011;27351;45.992;12.666;2023-04-28T08:39:13;7.45;;;3.53;;
41661;SDS011;27351;45.992;12.666;2023-04-28T08:41:39;8.20;;;3.60;;
41661;SDS011;27351;45.992;12.666;2023-04-28T08:44:08;7.07;;;3.80;;
41661;SDS011;27351;45.992;12.666;2023-04-28T08:46:33;7.35;;;3.97;;
41661;SDS011;27351;45.992;12.666;2023-04-28T08:49:00;6.60;;;4.13;;
41661;SDS011;27351;45.992;12.666;2023-04-28T08:51:37;6.97;;;4.00;;
41661;SDS011;27351;45.992;12.666;2023-04-28T08:54:08;7.40;;;3.65;;
41661;SDS011;27351;45.992;12.666;2023-04-28T08:56:35;7.43;;;3.30;;
41661;SDS011;27351;45.992;12.666;2023-04-28T08:59:01;9.27;;;3.58;;
41661;SDS011;27351;45.992;12.666;2023-04-28T09:01:28;7.10;;;3.30;;
41661;SDS011;27351;45.992;12.666;2023-04-28T09:03:54;7.10;;;3.27;;
41661;SDS011;27351;45.992;12.666;2023-04-28T09:06:20;6.70;;;3.03;;
41661;SDS011;27351;45.992;12.666;2023-04-28T09:08:47;7.25;;;3.33;;
41661;SDS011;27351;45.992;12.666;2023-04-28T09:11:13;5.90;;;3.10;;
41661;SDS011;27351;45.992;12.666;2023-04-28T09:13:40;6.35;;;2.72;;
41661;SDS011;27351;45.992;12.666;2023-04-28T09:16:06;6.22;;;3.15;;
41661;SDS011;27351;45.992;12.666;2023-04-28T09:18:32;6.50;;;2.70;;
41661;SDS011;27351;45.992;12.666;2023-04-28T09:21:04;6.18;;;3.10;;
41661;SDS011;27351;45.992;12.666;2023-04-28T09:23:30;7.07;;;3.30;;
41661;SDS011;27351;45.992;12.666;2023-04-28T09:28:23;5.63;;;3.10;;
41661;SDS011;27351;45.992;12.666;2023-04-28T09:30:49;6.43;;;3.30;;
41661;SDS011;27351;45.992;12.666;2023-04-28T09:33:15;6.70;;;3.37;;
41661;SDS011;27351;45.992;12.666;2023-04-28T09:35:41;8.30;;;3.87;;
41661;SDS011;27351;45.992;12.666;2023-04-28T09:38:07;5.88;;;3.63;;
41661;SDS011;27351;45.992;12.666;2023-04-28T09:40:33;7.72;;;3.90;;
41661;SDS011;27351;45.992;12.666;2023-04-28T09:43:23;7.32;;;4.25;;
41661;SDS011;27351;45.992;12.666;2023-04-28T09:45:48;7.60;;;3.90;;
41661;SDS011;27351;45.992;12.666;2023-04-28T09:48:14;7.17;;;4.40;;
41661;SDS011;27351;45.992;12.666;2023-04-28T09:50:39;8.67;;;4.47;;
41661;SDS011;27351;45.992;12.666;2023-04-28T09:53:06;7.85;;;4.10;;
41661;SDS011;27351;45.992;12.666;2023-04-28T09:55:34;8.80;;;4.53;;
41661;SDS011;27351;45.992;12.666;2023-04-28T09:58:01;8.85;;;4.10;;
41661;SDS011;27351;45.992;12.666;2023-04-28T10:00:31;7.07;;;4.07;;
41661;SDS011;27351;45.992;12.666;2023-04-28T10:02:57;8.52;;;4.50;;
41661;SDS011;27351;45.992;12.666;2023-04-28T10:05:24;6.00;;;3.65;;
41661;SDS011;27351;45.992;12.666;2023-04-28T10:07:49;7.15;;;4.00;;
41661;SDS011;27351;45.992;12.666;2023-04-28T10:10:15;6.82;;;3.72;;
41661;SDS011;27351;45.992;12.666;2023-04-28T10:12:41;6.13;;;3.75;;
41661;SDS011;27351;45.992;12.666;2023-04-28T10:15:08;5.97;;;3.70;;
41661;SDS011;27351;45.992;12.666;2023-04-28T10:17:34;6.63;;;3.65;;
41661;SDS011;27351;45.992;12.666;2023-04-28T10:20:00;6.78;;;3.50;;
41661;SDS011;27351;45.992;12.666;2023-04-28T10:27:31;6.28;;;2.85;;
41661;SDS011;27351;45.992;12.666;2023-04-28T10:32:36;6.80;;;2.87;;
41661;SDS011;27351;45.992;12.666;2023-04-28T10:40:34;5.10;;;2.50;;
41661;SDS011;27351;45.992;12.666;2023-04-28T10:43:01;4.72;;;2.50;;
41661;SDS011;27351;45.992;12.666;2023-04-28T10:48:11;3.03;;;1.90;;
41661;SDS011;27351;45.992;12.666;2023-04-28T10:50:36;4.03;;;1.88;;
41661;SDS011;27351;45.992;12.666;2023-04-28T10:53:02;3.23;;;1.70;;
41661;SDS011;27351;45.992;12.666;2023-04-28T10:55:29;3.43;;;1.87;;
41661;SDS011;27351;45.992;12.666;2023-04-28T11:00:42;2.60;;;1.40;;
41661;SDS011;27351;45.992;12.666;2023-04-28T11:03:07;4.00;;;1.48;;
41661;SDS011;27351;45.992;12.666;2023-04-28T11:05:33;2.50;;;1.33;;
41661;SDS011;27351;45.992;12.666;2023-04-28T11:13:27;2.55;;;1.27;;
41661;SDS011;27351;45.992;12.666;2023-04-28T11:16:02;2.35;;;1.20;;
41661;SDS011;27351;45.992;12.666;2023-04-28T11:18:53;2.40;;;1.08;;
41661;SDS011;27351;45.992;12.666;2023-04-28T11:21:17;3.00;;;1.25;;
41661;SDS011;27351;45.992;12.666;2023-04-28T11:23:43;3.80;;;1.40;;
41661;SDS011;27351;45.992;12.666;2023-04-28T11:26:09;3.42;;;1.30;;
41661;SDS011;27351;45.992;12.666;2023-04-28T11:28:34;4.38;;;1.20;;
41661;SDS011;27351;45.992;12.666;2023-04-28T11:31:14;2.58;;;1.10;;
41661;SDS011;27351;45.992;12.666;2023-04-28T11:34:10;2.00;;;1.13;;
41661;SDS011;27351;45.992;12.666;2023-04-28T11:41:52;3.30;;;1.00;;
41661;SDS011;27351;45.992;12.666;2023-04-28T11:44:19;2.47;;;1.20;;
41661;SDS011;27351;45.992;12.666;2023-04-28T11:46:49;2.90;;;1.15;;
41661;SDS011;27351;45.992;12.666;2023-04-28T11:49:17;2.90;;;1.50;;
41661;SDS011;27351;45.992;12.666;2023-04-28T11:51:42;2.40;;;1.10;;
41661;SDS011;27351;45.992;12.666;2023-04-28T11:54:11;1.80;;;0.98;;
41661;SDS011;27351;45.992;12.666;2023-04-28T11:56:39;2.28;;;1.13;;
41661;SDS011;27351;45.992;12.666;2023-04-28T11:59:06;3.30;;;1.30;;
41661;SDS011;27351;45.992;12.666;2023-04-28T12:01:33;2.90;;;1.23;;
41661;SDS011;27351;45.992;12.666;2023-04-28T12:04:01;2.63;;;1.10;;
41661;SDS011;27351;45.992;12.666;2023-04-28T12:06:27;3.17;;;1.13;;
41661;SDS011;27351;45.992;12.666;2023-04-28T12:08:54;2.05;;;1.10;;
41661;SDS011;27351;45.992;12.666;2023-04-28T12:11:20;2.43;;;1.27;;
41661;SDS011;27351;45.992;12.666;2023-04-28T12:14:28;2.50;;;1.20;;
41661;SDS011;27351;45.992;12.666;2023-04-28T12:16:38;3.83;;;1.50;;
41661;SDS011;27351;45.992;12.666;2023-04-28T12:19:07;3.00;;;1.13;;
41661;SDS011;27351;45.992;12.666;2023-04-28T12:21:35;3.10;;;1.00;;
41661;SDS011;27351;45.992;12.666;2023-04-28T12:24:11;3.63;;;1.10;;
41661;SDS011;27351;45.992;12.666;2023-04-28T12:26:37;3.28;;;1.30;;
41661;SDS011;27351;45.992;12.666;2023-04-28T12:29:02;1.60;;;0.80;;
41661;SDS011;27351;45.992;12.666;2023-04-28T12:31:28;1.67;;;0.80;;
41661;SDS011;27351;45.992;12.666;2023-04-28T12:33:54;2.80;;;0.98;;
41661;SDS011;27351;45.992;12.666;2023-04-28T12:36:20;2.25;;;0.90;;
41661;SDS011;27351;45.992;12.666;2023-04-28T12:38:48;2.20;;;0.90;;
41661;SDS011;27351;45.992;12.666;2023-04-28T12:41:14;3.30;;;1.10;;
41661;SDS011;27351;45.992;12.666;2023-04-28T12:43:39;2.22;;;1.08;;
41661;SDS011;27351;45.992;12.666;2023-04-28T12:46:05;2.88;;;1.30;;
41661;SDS011;27351;45.992;12.666;2023-04-28T12:48:33;2.47;;;1.00;;
41661;SDS011;27351;45.992;12.666;2023-04-28T12:50:59;3.42;;;1.30;;
41661;SDS011;27351;45.992;12.666;2023-04-28T12:53:24;2.13;;;0.93;;
41661;SDS011;27351;45.992;12.666;2023-04-28T12:55:50;1.63;;;0.80;;
41661;SDS011;27351;45.992;12.666;2023-04-28T12:58:16;1.38;;;0.82;;
41661;SDS011;27351;45.992;12.666;2023-04-28T13:00:42;2.88;;;0.90;;
41661;SDS011;27351;45.992;12.666;2023-04-28T13:03:08;1.70;;;0.90;;
41661;SDS011;27351;45.992;12.666;2023-04-28T13:05:34;3.33;;;1.20;;
41661;SDS011;27351;45.992;12.666;2023-04-28T13:07:59;2.88;;;1.30;;
41661;SDS011;27351;45.992;12.666;2023-04-28T13:10:25;3.03;;;1.40;;
41661;SDS011;27351;45.992;12.666;2023-04-28T13:12:50;4.63;;;1.30;;
41661;SDS011;27351;45.992;12.666;2023-04-28T13:15:16;1.95;;;0.90;;
41661;SDS011;27351;45.992;12.666;2023-04-28T13:17:42;2.25;;;1.20;;
41661;SDS011;27351;45.992;12.666;2023-04-28T13:20:09;1.80;;;0.90;;
41661;SDS011;27351;45.992;12.666;2023-04-28T13:22:34;2.75;;;1.20;;
41661;SDS011;27351;45.992;12.666;2023-04-28T13:25:00;2.23;;;1.07;;
41661;SDS011;27351;45.992;12.666;2023-04-28T13:27:25;2.87;;;1.00;;
41661;SDS011;27351;45.992;12.666;2023-04-28T13:29:54;2.35;;;1.10;;
41661;SDS011;27351;45.992;12.666;2023-04-28T13:32:23;7.13;;;2.10;;
41661;SDS011;27351;45.992;12.666;2023-04-28T13:34:49;3.83;;;1.40;;
41661;SDS011;27351;45.992;12.666;2023-04-28T13:37:14;3.20;;;1.30;;
41661;SDS011;27351;45.992;12.666;2023-04-28T13:39:40;2.00;;;1.00;;
41661;SDS011;27351;45.992;12.666;2023-04-28T13:42:05;2.70;;;1.30;;
41661;SDS011;27351;45.992;12.666;2023-04-28T13:44:32;3.05;;;1.30;;
41661;SDS011;27351;45.992;12.666;2023-04-28T13:46:57;2.20;;;1.20;;
41661;SDS011;27351;45.992;12.666;2023-04-28T13:49:23;1.90;;;1.00;;
41661;SDS011;27351;45.992;12.666;2023-04-28T13:51:49;2.00;;;1.00;;
41661;SDS011;27351;45.992;12.666;2023-04-28T13:54:14;2.17;;;1.23;;
41661;SDS011;27351;45.992;12.666;2023-04-28T13:56:40;3.53;;;1.25;;
41661;SDS011;27351;45.992;12.666;2023-04-28T13:59:06;2.00;;;1.00;;
41661;SDS011;27351;45.992;12.666;2023-04-28T14:01:31;2.13;;;1.15;;
41661;SDS011;27351;45.992;12.666;2023-04-28T14:03:57;3.37;;;1.20;;
41661;SDS011;27351;45.992;12.666;2023-04-28T14:06:22;3.03;;;1.30;;
41661;SDS011;27351;45.992;12.666;2023-04-28T14:08:48;2.28;;;1.20;;
41661;SDS011;27351;45.992;12.666;2023-04-28T14:11:14;3.50;;;1.50;;
41661;SDS011;27351;45.992;12.666;2023-04-28T14:13:39;3.00;;;1.30;;
41661;SDS011;27351;45.992;12.666;2023-04-28T14:16:05;3.03;;;1.20;;
41661;SDS011;27351;45.992;12.666;2023-04-28T14:18:31;2.20;;;1.10;;
41661;SDS011;27351;45.992;12.666;2023-04-28T14:20:58;2.50;;;1.25;;
41661;SDS011;27351;45.992;12.666;2023-04-28T14:23:23;2.87;;;1.40;;
41661;SDS011;27351;45.992;12.666;2023-04-28T14:25:50;2.22;;;1.27;;
41661;SDS011;27351;45.992;12.666;2023-04-28T14:28:19;2.65;;;1.38;;
41661;SDS011;27351;45.992;12.666;2023-04-28T14:30:45;3.75;;;1.45;;
41661;SDS011;27351;45.992;12.666;2023-04-28T14:33:11;2.97;;;1.37;;
41661;SDS011;27351;45.992;12.666;2023-04-28T14:35:36;3.37;;;1.37;;
41661;SDS011;27351;45.992;12.666;2023-04-28T14:38:02;5.35;;;1.45;;
41661;SDS011;27351;45.992;12.666;2023-04-28T14:40:28;3.03;;;1.42;;
41661;SDS011;27351;45.992;12.666;2023-04-28T14:42:54;2.85;;;1.42;;
41661;SDS011;27351;45.992;12.666;2023-04-28T14:48:13;3.45;;;1.33;;
41661;SDS011;27351;45.992;12.666;2023-04-28T14:50:41;2.53;;;1.40;;
41661;SDS011;27351;45.992;12.666;2023-04-28T14:53:07;4.85;;;1.67;;
41661;SDS011;27351;45.992;12.666;2023-04-28T14:55:33;2.58;;;1.17;;
41661;SDS011;27351;45.992;12.666;2023-04-28T14:57:58;3.35;;;1.38;;
41661;SDS011;27351;45.992;12.666;2023-04-28T15:00:24;3.40;;;1.43;;
41661;SDS011;27351;45.992;12.666;2023-04-28T15:02:49;4.17;;;1.57;;
41661;SDS011;27351;45.992;12.666;2023-04-28T15:05:15;2.35;;;1.40;;